createdAt,value
2023-12-18T00:01:47.940Z,94.70
2023-12-18T00:04:33.800Z,94.70
2023-12-18T00:07:18.893Z,94.70
2023-12-18T00:10:04.721Z,94.70
2023-12-18T00:12:50.173Z,94.80
2023-12-18T00:15:35.613Z,94.80
2023-12-18T00:18:21.061Z,94.80
2023-12-18T00:21:06.536Z,94.90
2023-12-18T00:23:51.715Z,94.90
2023-12-18T00:26:37.259Z,94.90
2023-12-18T00:29:22.823Z,94.80
2023-12-18T00:32:08.860Z,94.80
2023-12-18T00:34:54.486Z,94.90
2023-12-18T00:37:40.644Z,94.90
2023-12-18T00:40:26.386Z,95.00
2023-12-18T00:43:13.055Z,95.10
2023-12-18T00:45:58.267Z,95.10
2023-12-18T00:48:44.042Z,95.10
2023-12-18T00:51:29.932Z,95.20
2023-12-18T00:54:15.298Z,95.00
2023-12-18T00:57:00.548Z,95.10
2023-12-18T00:59:46.049Z,95.00
2023-12-18T01:02:31.540Z,95.00
2023-12-18T01:05:17.031Z,95.10
2023-12-18T01:08:02.452Z,95.10
2023-12-18T01:10:48.392Z,95.10
2023-12-18T01:13:33.765Z,95.00
2023-12-18T01:16:19.099Z,95.00
2023-12-18T01:19:05.344Z,95.00
2023-12-18T01:21:50.832Z,95.00
2023-12-18T01:24:36.477Z,95.00
2023-12-18T01:27:22.140Z,95.00
2023-12-18T01:30:10.132Z,95.00
2023-12-18T01:32:55.872Z,95.10
2023-12-18T01:35:41.378Z,95.10
2023-12-18T01:38:26.973Z,95.10
2023-12-18T01:41:12.682Z,95.20
2023-12-18T01:43:57.995Z,95.30
2023-12-18T01:46:45.337Z,95.20
2023-12-18T01:49:31.303Z,95.40
2023-12-18T01:52:18.048Z,95.30
2023-12-18T01:55:04.648Z,95.40
2023-12-18T01:57:51.684Z,95.50
2023-12-18T02:00:37.347Z,95.70
2023-12-18T02:03:24.490Z,95.90
2023-12-18T02:06:11.028Z,95.90
2023-12-18T02:08:58.094Z,95.90
2023-12-18T02:11:46.858Z,95.90
2023-12-18T02:14:32.675Z,95.90
2023-12-18T02:17:18.293Z,95.90
2023-12-18T02:20:08.083Z,95.90
2023-12-18T02:22:54.172Z,96.00
2023-12-18T02:25:39.506Z,96.00
2023-12-18T02:28:25.853Z,96.00
2023-12-18T02:31:15.870Z,96.00
2023-12-18T02:34:01.541Z,96.00
2023-12-18T02:36:47.194Z,96.10
2023-12-18T02:39:32.782Z,96.00
2023-12-18T02:42:18.357Z,96.00
2023-12-18T02:45:04.615Z,96.00
2023-12-18T02:47:50.347Z,95.90
2023-12-18T02:50:35.778Z,96.00
2023-12-18T02:53:21.182Z,95.90
2023-12-18T02:56:07.470Z,96.00
2023-12-18T02:58:53.204Z,96.10
2023-12-18T03:01:38.806Z,96.20
2023-12-18T03:04:24.589Z,96.20
2023-12-18T03:07:10.401Z,96.30
2023-12-18T03:09:56.017Z,96.20
2023-12-18T03:12:41.596Z,96.30
2023-12-18T03:15:27.553Z,96.30
2023-12-18T03:18:13.301Z,96.30
2023-12-18T03:20:58.736Z,96.30
2023-12-18T03:23:44.023Z,96.40
2023-12-18T03:26:29.516Z,96.40
2023-12-18T03:29:15.389Z,96.50
2023-12-18T03:32:01.984Z,96.60
2023-12-18T03:34:47.362Z,96.60
2023-12-18T03:37:32.892Z,96.60
2023-12-18T03:40:18.322Z,96.70
2023-12-18T03:43:03.683Z,96.60
2023-12-18T03:45:49.443Z,96.60
2023-12-18T03:48:35.012Z,96.60
2023-12-18T03:51:20.914Z,96.60
2023-12-18T03:54:06.108Z,96.80
2023-12-18T03:56:51.832Z,96.70
2023-12-18T03:59:37.164Z,96.90
2023-12-18T04:02:23.680Z,96.90
2023-12-18T04:05:09.267Z,97.20
2023-12-18T04:07:55.018Z,97.20
2023-12-18T04:10:40.357Z,97.30
2023-12-18T04:13:25.872Z,97.20
2023-12-18T04:16:11.604Z,97.20
2023-12-18T04:18:58.616Z,97.20
2023-12-18T04:21:44.464Z,97.10
2023-12-18T04:24:29.902Z,97.10
2023-12-18T04:27:15.879Z,97.30
2023-12-18T04:30:01.027Z,97.30
2023-12-18T04:32:46.688Z,97.20
2023-12-18T04:35:32.019Z,97.10
2023-12-18T04:38:17.852Z,97.00
2023-12-18T04:41:03.392Z,97.00
2023-12-18T04:43:49.806Z,97.10
2023-12-18T04:46:36.575Z,96.90
2023-12-18T04:49:22.061Z,97.10
2023-12-18T04:52:07.289Z,96.90
2023-12-18T04:54:54.810Z,96.80
2023-12-18T04:57:40.177Z,96.80
2023-12-18T05:00:25.503Z,96.90
2023-12-18T05:03:11.152Z,96.90
2023-12-18T05:05:56.580Z,96.90
2023-12-18T05:08:42.148Z,96.80
2023-12-18T05:11:27.884Z,96.90
2023-12-18T05:14:13.142Z,96.90
2023-12-18T05:16:58.961Z,96.90
2023-12-18T05:19:44.278Z,97.00
2023-12-18T05:22:29.838Z,97.10
2023-12-18T05:25:15.117Z,97.20
2023-12-18T05:28:00.609Z,97.20
2023-12-18T05:30:46.412Z,97.40
2023-12-18T05:33:31.717Z,97.30
2023-12-18T05:36:17.458Z,97.40
2023-12-18T05:39:02.902Z,97.50
2023-12-18T05:41:48.414Z,97.60
2023-12-18T05:44:33.864Z,97.60
2023-12-18T05:47:19.321Z,97.50
2023-12-18T05:50:05.242Z,97.60
2023-12-18T05:52:50.746Z,97.60
2023-12-18T05:55:36.019Z,97.70
2023-12-18T05:58:21.691Z,97.70
2023-12-18T06:01:07.808Z,97.60
2023-12-18T06:03:53.751Z,97.70
2023-12-18T06:06:39.830Z,97.60
2023-12-18T06:09:25.256Z,97.60
2023-12-18T06:12:12.032Z,97.50
2023-12-18T06:14:57.923Z,97.40
2023-12-18T06:17:43.261Z,97.40
2023-12-18T06:20:28.879Z,97.40
2023-12-18T06:23:14.342Z,97.50
2023-12-18T06:26:02.093Z,97.50
2023-12-18T06:28:48.240Z,97.60
2023-12-18T06:31:34.860Z,97.90
2023-12-18T06:34:20.822Z,97.50
2023-12-18T06:37:06.473Z,97.40
2023-12-18T06:39:51.993Z,97.40
2023-12-18T06:42:37.789Z,97.50
2023-12-18T06:45:23.469Z,97.60
2023-12-18T06:48:09.201Z,97.60
2023-12-18T06:50:54.680Z,97.60
2023-12-18T06:53:40.428Z,97.70
2023-12-18T06:56:26.061Z,97.90
2023-12-18T06:59:14.595Z,97.90
2023-12-18T07:02:00.203Z,98.00
2023-12-18T07:04:45.930Z,98.00
2023-12-18T07:07:31.104Z,98.00
2023-12-18T07:10:16.714Z,98.20
2023-12-18T07:13:02.319Z,98.20
2023-12-18T07:15:47.818Z,98.20
2023-12-18T07:18:33.374Z,98.20
2023-12-18T07:21:18.601Z,98.20
2023-12-18T07:24:04.426Z,98.10
2023-12-18T07:26:50.197Z,98.10
2023-12-18T07:29:35.891Z,98.10
2023-12-18T07:32:22.727Z,98.10
2023-12-18T07:35:08.507Z,98.20
2023-12-18T07:37:53.776Z,98.10
2023-12-18T07:40:39.313Z,98.10
2023-12-18T07:43:24.786Z,98.20
2023-12-18T07:46:20.103Z,98.00
2023-12-18T07:49:05.616Z,98.10
2023-12-18T07:51:50.941Z,97.90
2023-12-18T07:54:36.461Z,97.70
2023-12-18T07:57:22.378Z,97.80
2023-12-18T08:00:09.863Z,97.70
2023-12-18T08:02:58.371Z,97.80
2023-12-18T08:05:44.259Z,97.80
2023-12-18T08:08:29.964Z,98.00
2023-12-18T08:11:15.508Z,97.70
2023-12-18T08:14:00.945Z,97.70
2023-12-18T08:16:46.531Z,97.50
2023-12-18T08:19:32.292Z,97.50
2023-12-18T08:22:18.181Z,97.50
2023-12-18T08:25:04.124Z,97.40
2023-12-18T08:27:49.743Z,97.30
2023-12-18T08:30:35.317Z,97.30
2023-12-18T08:33:21.719Z,97.10
2023-12-18T08:36:07.880Z,97.20
2023-12-18T08:38:53.333Z,97.00
2023-12-18T08:41:39.825Z,96.90
2023-12-18T08:44:25.544Z,96.90
2023-12-18T08:47:11.122Z,96.70
2023-12-18T08:49:56.542Z,96.90
2023-12-18T08:52:42.176Z,96.60
2023-12-18T08:55:27.574Z,96.70
2023-12-18T08:58:13.053Z,96.90
2023-12-18T09:00:59.112Z,96.50
2023-12-18T09:03:44.866Z,96.40
2023-12-18T09:06:30.370Z,96.50
2023-12-18T09:09:15.736Z,96.60
2023-12-18T09:12:00.988Z,96.30
2023-12-18T09:14:46.799Z,96.10
2023-12-18T09:17:31.983Z,95.90
2023-12-18T09:20:18.140Z,95.80
2023-12-18T09:23:09.756Z,95.80
2023-12-18T09:25:55.456Z,95.50
2023-12-18T09:28:41.085Z,95.50
2023-12-18T09:31:26.393Z,95.60
2023-12-18T09:34:12.098Z,95.30
2023-12-18T09:36:57.970Z,95.00
2023-12-18T09:39:43.977Z,94.70
2023-12-18T09:42:29.234Z,94.70
2023-12-18T09:45:16.866Z,94.50
2023-12-18T09:48:02.718Z,94.50
2023-12-18T09:50:48.199Z,93.60
2023-12-18T09:53:34.433Z,93.30
2023-12-18T09:56:24.281Z,93.60
2023-12-18T09:59:09.462Z,93.10
2023-12-18T10:01:55.534Z,93.10
2023-12-18T10:04:42.522Z,92.90
2023-12-18T10:07:27.950Z,93.10
2023-12-18T10:10:13.317Z,92.80
2023-12-18T10:12:58.735Z,92.90
2023-12-18T10:15:44.525Z,93.10
2023-12-18T10:18:30.164Z,92.60
2023-12-18T10:21:24.022Z,92.70
2023-12-18T10:24:10.657Z,92.90
2023-12-18T10:26:56.206Z,93.00
2023-12-18T10:29:41.963Z,93.00
2023-12-18T10:32:28.763Z,93.10
2023-12-18T10:35:14.298Z,93.00
2023-12-18T10:38:01.794Z,93.10
2023-12-18T10:40:47.739Z,93.20
2023-12-18T10:43:34.871Z,93.20
2023-12-18T10:46:23.247Z,92.80
2023-12-18T10:49:09.482Z,92.80
2023-12-18T10:51:56.432Z,92.60
2023-12-18T10:54:45.882Z,92.60
2023-12-18T10:57:33.313Z,92.50
2023-12-18T11:00:20.351Z,92.20
2023-12-18T11:03:06.643Z,92.40
2023-12-18T11:05:53.775Z,92.20
2023-12-18T11:08:39.102Z,92.10
2023-12-18T11:11:25.805Z,91.80
2023-12-18T11:14:14.271Z,91.70
2023-12-18T11:17:12.686Z,92.00
2023-12-18T11:20:22.932Z,92.20
2023-12-18T11:23:10.435Z,92.20
2023-12-18T11:25:57.189Z,92.30
2023-12-18T11:28:49.092Z,92.30
2023-12-18T11:31:34.482Z,92.00
2023-12-18T11:34:22.372Z,92.10
2023-12-18T11:37:09.750Z,92.00
2023-12-18T11:39:56.615Z,92.00
2023-12-18T11:42:48.475Z,91.40
2023-12-18T11:45:37.371Z,91.50
2023-12-18T11:48:27.266Z,91.70
2023-12-18T11:51:13.806Z,91.30
2023-12-18T11:54:00.354Z,91.30
2023-12-18T11:56:47.996Z,91.20
2023-12-18T11:59:34.676Z,91.40
2023-12-18T12:02:21.831Z,91.40
2023-12-18T12:05:07.636Z,91.60
2023-12-18T12:07:54.107Z,91.50
2023-12-18T12:10:41.012Z,91.70
2023-12-18T12:13:28.820Z,91.70
2023-12-18T12:16:20.617Z,92.00
2023-12-18T12:19:07.454Z,92.10
2023-12-18T12:21:53.064Z,92.30
2023-12-18T12:24:43.725Z,92.20
2023-12-18T12:27:30.764Z,92.50
2023-12-18T12:30:18.109Z,92.60
2023-12-18T12:33:04.677Z,92.60
2023-12-18T12:35:50.359Z,92.70
2023-12-18T12:38:40.841Z,92.80
2023-12-18T12:41:26.247Z,92.90
2023-12-18T12:44:11.704Z,93.10
2023-12-18T12:46:57.265Z,93.10
2023-12-18T12:49:52.581Z,93.20
2023-12-18T12:52:38.936Z,93.10
2023-12-18T12:55:24.441Z,93.30
2023-12-18T12:58:11.442Z,93.10
2023-12-18T13:00:59.009Z,93.20
2023-12-18T13:03:44.406Z,93.20
2023-12-18T13:06:30.452Z,93.30
2023-12-18T13:09:16.075Z,93.50
2023-12-18T13:12:05.371Z,93.40
2023-12-18T13:14:51.380Z,93.30
2023-12-18T13:17:36.980Z,93.70
2023-12-18T13:20:27.875Z,93.60
2023-12-18T13:23:15.727Z,93.70
2023-12-18T13:26:01.339Z,93.30
2023-12-18T13:28:47.027Z,93.70
2023-12-18T13:31:34.567Z,93.70
2023-12-18T13:34:20.164Z,93.80
2023-12-18T13:37:07.712Z,94.00
2023-12-18T13:39:53.374Z,94.20
2023-12-18T13:42:38.746Z,94.30
2023-12-18T13:45:24.458Z,94.60
2023-12-18T13:48:10.359Z,94.70
2023-12-18T13:50:55.663Z,94.90
2023-12-18T13:53:41.331Z,94.90
2023-12-18T13:56:27.855Z,95.00
2023-12-18T13:59:13.261Z,95.30
2023-12-18T14:01:59.017Z,95.40
2023-12-18T14:04:45.987Z,95.50
2023-12-18T14:07:32.256Z,95.70
2023-12-18T14:10:18.088Z,95.70
2023-12-18T14:13:04.206Z,95.80
2023-12-18T14:15:49.775Z,95.90
2023-12-18T14:18:35.975Z,95.70
2023-12-18T14:21:22.884Z,95.50
2023-12-18T14:24:08.594Z,95.70
2023-12-18T14:26:54.030Z,96.00
2023-12-18T14:29:39.678Z,96.40
2023-12-18T14:32:25.465Z,96.10
2023-12-18T14:35:11.349Z,96.20
2023-12-18T14:37:57.265Z,96.00
2023-12-18T14:40:42.346Z,96.00
2023-12-18T14:43:29.598Z,96.00
2023-12-18T14:46:17.135Z,96.10
2023-12-18T14:49:03.335Z,96.10
2023-12-18T14:51:49.071Z,96.30
2023-12-18T14:54:34.814Z,96.60
2023-12-18T14:57:20.039Z,96.30
2023-12-18T15:00:06.336Z,96.30
2023-12-18T15:02:51.799Z,96.20
2023-12-18T15:05:37.346Z,96.10
2023-12-18T15:08:23.054Z,96.30
2023-12-18T15:11:08.586Z,96.30
2023-12-18T15:13:54.101Z,96.50
2023-12-18T15:16:39.885Z,96.50
2023-12-18T15:19:25.538Z,96.50
2023-12-18T15:22:11.682Z,96.70
2023-12-18T15:24:56.989Z,96.80
2023-12-18T15:27:44.194Z,96.90
2023-12-18T15:30:29.925Z,97.00
2023-12-18T15:33:17.959Z,97.20
2023-12-18T15:36:12.787Z,97.10
2023-12-18T15:39:01.720Z,97.10
2023-12-18T15:41:47.658Z,97.20
2023-12-18T15:44:34.953Z,97.20
2023-12-18T15:47:21.773Z,97.20
2023-12-18T15:50:08.012Z,97.30
2023-12-18T15:52:53.759Z,97.30
2023-12-18T15:55:39.341Z,97.40
2023-12-18T15:58:24.918Z,97.40
2023-12-18T16:01:13.065Z,97.30
2023-12-18T16:03:58.711Z,97.40
2023-12-18T16:06:44.508Z,97.30
2023-12-18T16:09:30.221Z,97.30
2023-12-18T16:12:15.702Z,97.20
2023-12-18T16:15:01.290Z,97.20
2023-12-18T16:17:46.471Z,97.30
2023-12-18T16:20:31.859Z,97.60
2023-12-18T16:23:20.415Z,97.30
2023-12-18T16:26:05.886Z,97.20
2023-12-18T16:28:53.506Z,97.10
2023-12-18T16:31:39.156Z,97.20
2023-12-18T16:34:27.755Z,97.20
2023-12-18T16:37:14.694Z,97.40
2023-12-18T16:40:00.647Z,97.20
2023-12-18T16:42:46.631Z,97.10
2023-12-18T16:45:32.774Z,97.40
2023-12-18T16:48:18.254Z,97.40
2023-12-18T16:51:04.267Z,97.50
2023-12-18T16:53:49.763Z,97.40
2023-12-18T16:56:35.971Z,97.40
2023-12-18T16:59:22.750Z,97.60
2023-12-18T17:02:08.296Z,97.50
2023-12-18T17:04:53.941Z,97.40
2023-12-18T17:07:39.809Z,97.40
2023-12-18T17:10:25.054Z,97.20
2023-12-18T17:13:13.609Z,97.40
2023-12-18T17:15:58.987Z,97.50
2023-12-18T17:18:44.320Z,97.50
2023-12-18T17:21:29.949Z,97.70
2023-12-18T17:24:16.173Z,97.80
2023-12-18T17:27:01.436Z,97.80
2023-12-18T17:29:47.389Z,97.90
2023-12-18T17:32:32.570Z,98.00
2023-12-18T17:35:18.214Z,98.00
2023-12-18T17:38:03.863Z,97.90
2023-12-18T17:40:50.371Z,97.90
2023-12-18T17:43:35.927Z,98.00
2023-12-18T17:46:21.830Z,97.90
2023-12-18T17:49:07.417Z,97.80
2023-12-18T17:51:53.453Z,98.00
2023-12-18T17:54:38.911Z,98.00
2023-12-18T17:57:24.460Z,98.10
2023-12-18T18:00:10.459Z,98.00
2023-12-18T18:02:55.863Z,98.10
2023-12-18T18:05:41.614Z,98.10
2023-12-18T18:08:28.124Z,97.90
2023-12-18T18:11:13.470Z,98.00
2023-12-18T18:14:00.753Z,98.10
2023-12-18T18:16:46.111Z,98.10
2023-12-18T18:19:31.829Z,98.20
2023-12-18T18:22:18.144Z,98.00
2023-12-18T18:25:03.968Z,98.10
2023-12-18T18:27:49.786Z,98.10
2023-12-18T18:30:35.312Z,98.20
2023-12-18T18:33:20.801Z,98.40
2023-12-18T18:36:06.620Z,98.50
2023-12-18T18:38:52.103Z,98.30
2023-12-18T18:41:37.494Z,98.20
2023-12-18T18:44:23.294Z,98.30
2023-12-18T18:47:08.529Z,98.30
2023-12-18T18:49:54.049Z,98.40
2023-12-18T18:52:39.805Z,98.60
2023-12-18T18:55:25.081Z,98.60
2023-12-18T18:58:11.457Z,98.70
2023-12-18T19:00:57.455Z,98.90
2023-12-18T19:03:43.333Z,98.90
2023-12-18T19:06:28.886Z,98.90
2023-12-18T19:09:14.484Z,98.90
2023-12-18T19:12:00.120Z,99.10
2023-12-18T19:14:45.556Z,99.10
2023-12-18T19:17:31.048Z,99.10
2023-12-18T19:20:16.679Z,99.10
2023-12-18T19:23:02.438Z,99.00
2023-12-18T19:25:47.882Z,99.00
2023-12-18T19:28:33.473Z,99.30
2023-12-18T19:31:19.057Z,98.90
2023-12-18T19:34:04.595Z,98.90
2023-12-18T19:36:49.939Z,99.00
2023-12-18T19:39:35.439Z,98.80
2023-12-18T19:42:21.350Z,99.10
2023-12-18T19:45:07.953Z,98.90
2023-12-18T19:47:53.393Z,99.20
2023-12-18T19:50:39.295Z,99.00
2023-12-18T19:53:24.775Z,99.00
2023-12-18T19:56:10.154Z,99.10
2023-12-18T19:58:55.445Z,99.30
2023-12-18T20:01:41.252Z,99.40
2023-12-18T20:04:26.727Z,99.40
2023-12-18T20:07:12.288Z,99.50
2023-12-18T20:09:58.425Z,99.50
2023-12-18T20:12:44.022Z,99.70
2023-12-18T20:15:29.378Z,99.80
2023-12-18T20:18:19.901Z,99.80
2023-12-18T20:21:05.390Z,99.80
2023-12-18T20:23:51.719Z,99.90
2023-12-18T20:26:36.990Z,99.90
2023-12-18T20:29:22.775Z,99.80
2023-12-18T20:32:08.466Z,99.90
2023-12-18T20:34:54.087Z,99.90
2023-12-18T20:37:39.526Z,99.90
2023-12-18T20:40:25.599Z,99.90
2023-12-18T20:43:11.045Z,99.90
2023-12-18T20:45:57.123Z,99.90
2023-12-18T20:48:42.793Z,99.90
2023-12-18T20:51:28.874Z,99.90
2023-12-18T20:54:14.151Z,99.90
2023-12-18T20:56:59.562Z,99.90
2023-12-18T20:59:44.927Z,99.90
2023-12-18T21:02:30.769Z,99.90
2023-12-18T21:05:16.032Z,99.90
2023-12-18T21:08:01.707Z,99.90
2023-12-18T21:10:47.258Z,99.90
2023-12-18T21:13:33.179Z,99.90
2023-12-18T21:16:18.895Z,99.90
2023-12-18T21:19:04.203Z,99.90
2023-12-18T21:21:51.945Z,99.90
2023-12-18T21:24:37.800Z,99.90
2023-12-18T21:27:23.246Z,99.90
2023-12-18T21:30:10.041Z,99.90
2023-12-18T21:32:55.829Z,99.90
2023-12-18T21:35:41.073Z,99.90
2023-12-18T21:38:27.080Z,99.90
2023-12-18T21:41:12.392Z,99.90
2023-12-18T21:43:58.156Z,99.90
2023-12-18T21:46:44.102Z,99.90
2023-12-18T21:49:29.409Z,99.90
2023-12-18T21:52:15.913Z,99.90
2023-12-18T21:55:01.525Z,99.90
2023-12-18T21:57:47.084Z,99.90
2023-12-18T22:00:33.815Z,99.90
2023-12-18T22:03:19.751Z,99.90
2023-12-18T22:06:05.782Z,99.90
2023-12-18T22:08:51.198Z,99.90
2023-12-18T22:11:36.554Z,99.90
2023-12-18T22:14:22.191Z,99.90
2023-12-18T22:17:07.821Z,99.90
2023-12-18T22:19:53.573Z,99.90
2023-12-18T22:22:39.127Z,99.90
2023-12-18T22:25:24.916Z,99.90
2023-12-18T22:28:10.471Z,99.90
2023-12-18T22:30:56.181Z,99.90
2023-12-18T22:33:41.531Z,99.90
2023-12-18T22:36:27.183Z,99.90
2023-12-18T22:39:13.105Z,99.90
2023-12-18T22:41:58.874Z,99.90
2023-12-18T22:44:44.294Z,99.90
2023-12-18T22:47:29.715Z,99.90
2023-12-18T22:50:15.495Z,99.90
2023-12-18T22:53:00.764Z,99.90
2023-12-18T22:55:46.300Z,99.90
2023-12-18T22:58:31.827Z,99.90
2023-12-18T23:01:17.524Z,99.90
2023-12-18T23:04:03.411Z,99.90
2023-12-18T23:06:50.494Z,99.90
2023-12-18T23:09:38.056Z,99.90
2023-12-18T23:12:23.392Z,99.90
2023-12-18T23:15:09.353Z,99.90
2023-12-18T23:17:55.104Z,99.90
2023-12-18T23:20:40.736Z,99.90
2023-12-18T23:23:26.175Z,99.90
2023-12-18T23:26:11.476Z,99.90
2023-12-18T23:28:57.557Z,99.90
2023-12-18T23:31:43.104Z,99.90
2023-12-18T23:34:28.596Z,99.90
2023-12-18T23:37:13.984Z,99.90
2023-12-18T23:39:59.699Z,99.90
2023-12-18T23:42:45.471Z,99.90
2023-12-18T23:45:31.464Z,99.90
2023-12-18T23:48:17.580Z,99.90
2023-12-18T23:51:03.030Z,99.90
2023-12-18T23:53:48.476Z,99.90
2023-12-18T23:56:33.841Z,99.90
2023-12-18T23:59:19.701Z,99.90
